createdAt,value
2022-12-03T00:02:11.940Z,99089.88
2022-12-03T00:04:52.237Z,99091.59
2022-12-03T00:07:26.215Z,99093.31
2022-12-03T00:20:56.910Z,99082.84
2022-12-03T00:23:41.735Z,99078.47
2022-12-03T00:26:15.125Z,99081.94
2022-12-03T00:28:47.952Z,99079.34
2022-12-03T00:31:21.452Z,99077.59
2022-12-03T00:33:54.926Z,99082.84
2022-12-03T00:36:30.157Z,99080.25
2022-12-03T00:49:17.977Z,99090.78
2022-12-03T00:51:59.953Z,99080.31
2022-12-03T00:54:33.120Z,99082.00
2022-12-03T00:56:59.810Z,99084.63
2022-12-03T00:59:42.997Z,99079.38
2022-12-03T01:02:16.200Z,99082.00
2022-12-03T01:15:06.909Z,99093.41
2022-12-03T01:17:46.924Z,99089.91
2022-12-03T01:20:20.431Z,99077.69
2022-12-03T01:22:53.968Z,99082.06
2022-12-03T01:25:27.452Z,99081.19
2022-12-03T01:43:44.903Z,99075.09
2022-12-03T01:46:28.983Z,99074.25
2022-12-03T01:49:02.313Z,99075.94
2022-12-03T01:51:35.914Z,99069.81
2022-12-03T01:54:17.772Z,99071.59
2022-12-03T01:56:57.935Z,99065.47
2022-12-03T02:10:11.934Z,99042.78
2022-12-03T02:12:51.889Z,99053.25
2022-12-03T02:15:33.001Z,99049.75
2022-12-03T02:18:08.661Z,99044.47
2022-12-03T03:12:04.940Z,99056.81
2022-12-03T03:14:38.756Z,99054.19
2022-12-03T03:17:13.152Z,99059.41
2022-12-03T03:30:25.004Z,99052.47
2022-12-03T03:32:58.481Z,99044.56
2022-12-03T03:35:31.893Z,99042.88
2022-12-03T03:38:07.175Z,99049.88
2022-12-03T03:40:40.922Z,99050.75
2022-12-03T03:57:17.932Z,99035.84
2022-12-03T03:59:57.904Z,99041.06
2022-12-03T04:02:33.464Z,99033.22
2022-12-03T04:05:06.893Z,99035.84
2022-12-03T04:07:40.183Z,99028.00
2022-12-03T04:10:14.904Z,99020.09
2022-12-03T04:23:30.898Z,99026.25
2022-12-03T04:26:04.322Z,99027.16
2022-12-03T04:28:37.900Z,99021.91
2022-12-03T04:31:11.119Z,99014.94
2022-12-03T04:33:37.818Z,99028.03
2022-12-03T04:36:17.924Z,99015.81
2022-12-03T04:49:29.902Z,99014.13
2022-12-03T04:52:03.588Z,99015.03
2022-12-03T04:54:44.968Z,99016.78
2022-12-03T04:57:18.190Z,99017.63
2022-12-03T04:59:51.902Z,99018.47
2022-12-03T05:02:25.203Z,99014.97
2022-12-03T05:15:16.868Z,99013.22
2022-12-03T05:17:57.060Z,99018.47
2022-12-03T05:20:30.096Z,99013.22
2022-12-03T05:22:56.843Z,99001.84
2022-12-03T05:25:36.893Z,99002.75
2022-12-03T05:28:10.248Z,99006.28
2022-12-03T05:30:45.957Z,99005.34
2022-12-03T05:43:55.892Z,99011.44
2022-12-03T05:46:31.435Z,99009.72
2022-12-03T05:49:04.879Z,99007.97
2022-12-03T05:51:38.124Z,99009.72
2022-12-03T05:54:11.902Z,99011.44
2022-12-03T05:56:45.117Z,99011.44
2022-12-03T06:09:34.845Z,99012.31
2022-12-03T06:12:14.858Z,98991.38
2022-12-03T06:14:49.208Z,99008.81
2022-12-03T06:17:22.876Z,99002.72
2022-12-03T06:20:02.366Z,99011.44
2022-12-03T06:22:43.929Z,99009.72
2022-12-03T06:36:02.896Z,99014.88
2022-12-03T06:38:36.073Z,99011.41
2022-12-03T06:41:02.826Z,99004.44
2022-12-03T06:43:42.914Z,99010.53
2022-12-03T06:46:16.206Z,99022.78
2022-12-03T06:48:49.884Z,99021.91
2022-12-03T06:51:25.156Z,99021.91
2022-12-03T07:04:12.834Z,99020.16
2022-12-03T07:06:54.886Z,99016.66
2022-12-03T07:09:28.148Z,99011.41
2022-12-03T07:12:01.893Z,99016.66
2022-12-03T07:14:35.144Z,99018.38
2022-12-03T07:17:08.873Z,99014.00
2022-12-03T07:30:22.845Z,99014.84
2022-12-03T07:32:57.045Z,99013.03
2022-12-03T07:35:29.870Z,99013.03
2022-12-03T07:38:03.076Z,99006.91
2022-12-03T07:40:29.808Z,99012.16
2022-12-03T07:57:01.351Z,99017.34
2022-12-03T07:59:35.119Z,99012.09
2022-12-03T08:02:08.860Z,99016.47
2022-12-03T08:04:42.053Z,99015.59
2022-12-03T08:07:08.734Z,99015.59
2022-12-03T08:09:49.934Z,99016.47
2022-12-03T08:12:28.416Z,99011.22
2022-12-03T08:22:28.893Z,99006.00
2022-12-03T08:25:02.182Z,98997.28
2022-12-03T08:27:38.577Z,98999.88
2022-12-03T08:30:15.174Z,99006.00
2022-12-03T08:32:49.853Z,99000.75
2022-12-03T08:35:25.828Z,98995.50
2022-12-03T08:51:10.879Z,98993.66
2022-12-03T08:53:48.360Z,98995.41
2022-12-03T08:56:30.868Z,98996.28
2022-12-03T08:59:25.464Z,98998.84
2022-12-03T09:02:05.869Z,98997.06
2022-12-03T09:16:00.841Z,99004.84
2022-12-03T09:18:36.055Z,99008.31
2022-12-03T09:21:09.831Z,99013.53
2022-12-03T09:23:43.190Z,99010.88
2022-12-03T09:26:16.848Z,99007.34
2022-12-03T09:28:50.296Z,99006.50
2022-12-03T09:31:24.583Z,98998.59
2022-12-03T09:44:40.824Z,99000.25
2022-12-03T09:47:14.153Z,99008.09
2022-12-03T09:49:47.883Z,99005.41
2022-12-03T09:52:26.925Z,99001.91
2022-12-03T09:55:27.903Z,99005.38
2022-12-03T09:58:02.188Z,98993.06
2022-12-03T10:10:54.856Z,98985.22
2022-12-03T10:13:37.832Z,98986.09
2022-12-03T10:16:16.331Z,98985.25
2022-12-03T10:19:00.821Z,98982.66
2022-12-03T10:21:37.756Z,98986.16
2022-12-03T10:38:08.835Z,98978.34
2022-12-03T10:40:42.092Z,98974.84
2022-12-03T10:43:21.843Z,98970.47
2022-12-03T10:46:15.513Z,98970.47
2022-12-03T10:49:14.844Z,98967.81
2022-12-03T10:51:48.684Z,98965.19
2022-12-03T11:04:41.786Z,98960.81
2022-12-03T11:07:24.883Z,98964.34
2022-12-03T11:09:58.143Z,98963.44
2022-12-03T11:12:34.827Z,98962.59
2022-12-03T11:15:15.590Z,98958.19
2022-12-03T11:17:56.842Z,98952.97
2022-12-03T11:31:11.917Z,98949.38
2022-12-03T11:33:45.041Z,98947.59
2022-12-03T11:36:47.705Z,98943.25
2022-12-03T11:40:19.664Z,98952.84
2022-12-03T11:43:04.800Z,98945.88
2022-12-03T11:56:35.826Z,98943.25
2022-12-03T11:59:12.688Z,98937.06
2022-12-03T12:01:52.823Z,98930.97
2022-12-03T12:04:30.459Z,98923.09
2022-12-03T12:07:10.836Z,98923.09
2022-12-03T12:09:53.694Z,98930.09
2022-12-03T12:12:54.651Z,98930.94
2022-12-03T12:23:26.767Z,98916.06
2022-12-03T12:26:11.800Z,98923.03
2022-12-03T12:28:47.069Z,98912.59
2022-12-03T12:31:19.905Z,98923.94
2022-12-03T12:33:53.455Z,98903.00
2022-12-03T12:36:27.502Z,98912.59
2022-12-03T12:50:03.887Z,98903.03
2022-12-03T12:52:47.744Z,98904.78
2022-12-03T12:55:29.788Z,98898.66
2022-12-03T12:58:11.833Z,98896.03
2022-12-03T13:00:57.910Z,98896.88
2022-12-03T13:03:41.385Z,98886.38
2022-12-03T13:06:26.862Z,98886.38
2022-12-03T13:16:46.859Z,98886.38
2022-12-03T13:19:29.821Z,98881.13
2022-12-03T13:22:15.603Z,98891.63
2022-12-03T13:24:58.792Z,98889.00
2022-12-03T13:27:31.998Z,98887.28
2022-12-03T13:30:09.797Z,98890.78
2022-12-03T13:32:44.009Z,98892.50
2022-12-03T13:45:44.812Z,98872.50
2022-12-03T13:48:30.811Z,98877.66
2022-12-03T13:51:26.673Z,98874.16
2022-12-03T13:54:09.332Z,98875.03
2022-12-03T13:56:45.003Z,98874.16
2022-12-03T14:10:19.761Z,98868.88
2022-12-03T14:13:01.784Z,98871.50
2022-12-03T14:15:35.000Z,98872.38
2022-12-03T14:18:08.791Z,98867.13
2022-12-03T14:20:42.057Z,98881.97
2022-12-03T14:23:08.724Z,98881.09
2022-12-03T14:25:48.802Z,98890.75
2022-12-03T14:39:00.823Z,98876.75
2022-12-03T14:41:34.572Z,98882.88
2022-12-03T14:44:08.516Z,98877.63
2022-12-03T14:46:41.972Z,98877.63
2022-12-03T14:49:14.778Z,98880.22
2022-12-03T14:51:48.016Z,98881.97
2022-12-03T15:04:37.742Z,98893.28
2022-12-03T15:07:17.811Z,98886.31
2022-12-03T15:09:51.091Z,98890.69
2022-12-03T15:12:24.777Z,98888.94
2022-12-03T15:14:57.976Z,98881.06
2022-12-03T15:17:31.211Z,98884.59
2022-12-03T15:30:37.734Z,98890.66
2022-12-03T15:33:17.853Z,98882.78
2022-12-03T15:35:51.485Z,98888.03
2022-12-03T15:38:24.749Z,98891.53
2022-12-03T15:40:57.969Z,98888.03
2022-12-03T15:43:24.645Z,98884.53
2022-12-03T15:46:08.623Z,98885.41
2022-12-03T15:59:18.770Z,98882.78
2022-12-03T16:01:54.188Z,98877.53
2022-12-03T16:04:27.769Z,98884.53
2022-12-03T16:07:01.055Z,98871.41
2022-12-03T16:09:34.772Z,98874.03
2022-12-03T16:12:07.941Z,98870.53
2022-12-03T16:24:57.805Z,98872.25
2022-12-03T16:27:37.779Z,98868.75
2022-12-03T16:30:12.553Z,98873.97
2022-12-03T16:32:45.761Z,98872.25
2022-12-03T16:35:19.115Z,98867.91
2022-12-03T16:37:52.785Z,98867.94
2022-12-03T16:51:05.461Z,98863.53
2022-12-03T16:53:38.952Z,98860.91
2022-12-03T16:56:12.745Z,98854.78
2022-12-03T16:58:46.432Z,98860.91
2022-12-03T17:01:19.825Z,98860.91
2022-12-03T17:03:53.415Z,98864.41
2022-12-03T17:06:28.760Z,98858.28
2022-12-03T17:19:38.764Z,98874.88
2022-12-03T17:22:14.156Z,98873.06
2022-12-03T17:24:49.753Z,98867.84
2022-12-03T17:27:23.096Z,98871.28
2022-12-03T17:29:57.037Z,98868.66
2022-12-03T17:32:30.043Z,98855.59
2022-12-03T17:45:26.717Z,98851.13
2022-12-03T17:48:06.749Z,98852.88
2022-12-03T17:50:42.992Z,98854.66
2022-12-03T17:53:16.453Z,98861.63
2022-12-03T17:55:49.981Z,98856.38
2022-12-03T18:12:04.742Z,98850.22
2022-12-03T18:14:37.921Z,98843.22
2022-12-03T18:17:04.602Z,98838.84
2022-12-03T18:19:44.736Z,98833.59
2022-12-03T18:22:18.373Z,98823.09
2022-12-03T18:24:52.224Z,98823.09
2022-12-03T18:27:27.909Z,98817.84
2022-12-03T18:40:24.706Z,98837.13
2022-12-03T18:43:06.768Z,98826.59
2022-12-03T18:45:40.758Z,98821.31
2022-12-03T18:48:18.734Z,98818.69
2022-12-03T18:50:51.932Z,98814.31
2022-12-03T19:07:03.730Z,98829.22
2022-12-03T19:09:30.537Z,98830.03
2022-12-03T19:12:14.739Z,98827.41
2022-12-03T19:14:48.033Z,98825.66
2022-12-03T19:17:21.810Z,98841.38
2022-12-03T19:31:16.800Z,98836.16
2022-12-03T19:33:51.962Z,98838.75
2022-12-03T19:36:27.742Z,98851.88
2022-12-03T19:39:01.113Z,98842.25
2022-12-03T19:41:35.728Z,98842.25
2022-12-03T19:44:12.265Z,98835.28
2022-12-03T19:46:54.746Z,98839.63
2022-12-03T20:00:07.412Z,98851.81
2022-12-03T20:02:41.189Z,98854.44
2022-12-03T20:05:15.569Z,98849.19
2022-12-03T20:07:49.042Z,98851.81
2022-12-03T20:10:22.706Z,98847.50
2022-12-03T20:12:56.022Z,98845.75
2022-12-03T20:25:45.748Z,98829.13
2022-12-03T20:28:25.724Z,98832.59
2022-12-03T20:30:59.146Z,98824.78
2022-12-03T20:33:32.734Z,98822.09
2022-12-03T20:36:07.825Z,98824.78
2022-12-03T20:52:22.718Z,98816.00
2022-12-03T20:54:55.952Z,98820.38
2022-12-03T20:57:22.658Z,98821.25
2022-12-03T21:00:02.729Z,98819.44
2022-12-03T21:02:36.792Z,98811.63
2022-12-03T21:05:12.776Z,98815.09
2022-12-03T21:07:48.863Z,98822.09
2022-12-03T21:20:36.672Z,98811.63
2022-12-03T21:23:19.758Z,98815.09
2022-12-03T21:25:52.961Z,98812.47
2022-12-03T21:28:26.759Z,98814.19
2022-12-03T21:31:02.201Z,98815.94
2022-12-03T21:47:17.786Z,98801.06
2022-12-03T21:49:50.968Z,98801.06
2022-12-03T21:52:17.669Z,98803.69
2022-12-03T21:54:58.680Z,98801.97
2022-12-03T21:57:35.497Z,98809.84
2022-12-03T22:13:57.704Z,98794.94
2022-12-03T22:16:31.076Z,98800.19
2022-12-03T22:19:04.696Z,98794.94
2022-12-03T22:21:37.886Z,98794.94
2022-12-03T22:24:12.689Z,98786.16
2022-12-03T22:26:46.077Z,98780.94
2022-12-03T22:39:36.652Z,98782.72
2022-12-03T22:42:16.700Z,98786.16
2022-12-03T22:44:49.957Z,98789.66
2022-12-03T22:47:23.701Z,98782.66
2022-12-03T22:49:57.276Z,98787.91
2022-12-03T22:52:46.698Z,98778.25
2022-12-03T23:05:58.665Z,98770.34
2022-12-03T23:08:31.850Z,98772.97
2022-12-03T23:11:07.372Z,98765.09
2022-12-03T23:13:41.336Z,98758.06
2022-12-03T23:16:21.721Z,98751.06
2022-12-03T23:18:57.377Z,98752.81
2022-12-03T23:21:35.721Z,98750.19
2022-12-03T23:32:05.642Z,98751.09
2022-12-03T23:34:45.735Z,98747.56
2022-12-03T23:37:21.112Z,98746.66
2022-12-03T23:39:55.937Z,98736.19
2022-12-03T23:42:28.949Z,98738.78
2022-12-03T23:45:02.681Z,98727.44
2022-12-03T23:47:35.857Z,98730.88
